Time;durP1;ratioP1;P1;durP2;ratioP2;P2;SDS_P1;SDS_P2;PMS_P1;PMS_P2;Temp;Humidity;BMP_temperature;BMP_pressure;BME280_temperature;BME280_humidity;BME280_pressure;Samples;Min_cycle;Max_cycle;Signal;HPM_P1;HPM_P2
2022/12/05 00:00:46;;;;;;;7.00;5.70;;;19.60;40.20;;;;;;5092229;28;20553;-10
2022/12/05 00:03:12;;;;;;;6.68;5.88;;;19.60;40.10;;;;;;5092485;28;20485;-10
2022/12/05 00:05:41;;;;;;;6.68;5.45;;;19.60;40.20;;;;;;5092366;28;20062;-10
2022/12/05 00:08:06;;;;;;;7.07;5.65;;;19.60;40.10;;;;;;5092090;28;20390;-10
2022/12/05 00:10:35;;;;;;;6.68;5.05;;;19.60;40.70;;;;;;5092100;28;20055;-11
2022/12/05 00:13:01;;;;;;;5.85;5.25;;;19.60;40.10;;;;;;5092105;28;20067;-10
2022/12/05 00:15:27;;;;;;;7.10;5.70;;;19.60;40.10;;;;;;5091912;28;20052;-11
2022/12/05 00:17:53;;;;;;;6.25;5.35;;;19.60;40.10;;;;;;5092254;28;20101;-10
2022/12/05 00:20:19;;;;;;;6.85;6.03;;;19.60;40.10;;;;;;5091758;28;20074;-10
2022/12/05 00:22:45;;;;;;;5.93;5.10;;;19.60;40.10;;;;;;5091977;28;20070;-10
2022/12/05 00:25:12;;;;;;;6.18;5.13;;;19.60;40.60;;;;;;5091909;28;20048;-10
2022/12/05 00:27:39;;;;;;;6.13;5.15;;;19.60;40.10;;;;;;5095287;28;20063;-10
2022/12/05 00:30:07;;;;;;;6.80;5.35;;;19.60;40.10;;;;;;5095414;28;20117;-10
2022/12/05 00:32:32;;;;;;;6.38;5.40;;;19.60;40.10;;;;;;5095734;28;20051;-10
2022/12/05 00:34:58;;;;;;;6.07;5.20;;;19.60;40.10;;;;;;5095293;28;20056;-10
2022/12/05 00:37:24;;;;;;;6.25;5.10;;;19.60;40.10;;;;;;5095036;28;20056;-10
2022/12/05 00:39:49;;;;;;;5.93;5.10;;;19.60;40.10;;;;;;5095039;28;20505;-11
2022/12/05 00:42:15;;;;;;;6.20;5.60;;;19.60;40.10;;;;;;5095378;28;20120;-10
2022/12/05 00:44:41;;;;;;;6.13;5.40;;;19.60;40.10;;;;;;5095123;28;20048;-10
2022/12/05 00:47:07;;;;;;;7.35;5.93;;;19.60;40.10;;;;;;5095165;28;20505;-11
2022/12/05 00:49:32;;;;;;;6.43;5.35;;;19.60;40.10;;;;;;5094885;28;20052;-11
2022/12/05 00:51:58;;;;;;;6.22;5.30;;;19.60;40.10;;;;;;5095120;28;20040;-10
2022/12/05 00:54:23;;;;;;;6.80;5.70;;;19.60;40.10;;;;;;5095106;28;20501;-10
2022/12/05 00:56:51;;;;;;;6.75;5.53;;;19.60;40.10;;;;;;5095020;28;20138;-11
2022/12/05 00:59:18;;;;;;;6.88;4.97;;;19.60;40.10;;;;;;5095535;28;20052;-10
2022/12/05 01:01:46;;;;;;;5.97;5.30;;;19.60;40.10;;;;;;5094824;28;20405;-10
2022/12/05 01:04:15;;;;;;;6.40;5.13;;;19.60;40.10;;;;;;5094972;28;20094;-10
2022/12/05 01:06:41;;;;;;;7.43;5.97;;;19.70;40.20;;;;;;5094822;28;20048;-11
2022/12/05 01:09:09;;;;;;;6.80;5.88;;;19.60;40.10;;;;;;5094898;28;20139;-10
2022/12/05 01:11:35;;;;;;;6.45;5.30;;;19.60;40.10;;;;;;5095145;28;20489;-10
2022/12/05 01:14:01;;;;;;;5.95;5.00;;;19.60;40.10;;;;;;5094792;28;20089;-10
2022/12/05 01:16:35;;;;;;;5.82;5.10;;;19.60;40.10;;;;;;5094631;28;20059;-10
2022/12/05 01:19:06;;;;;;;7.28;5.15;;;19.60;40.20;;;;;;5094725;28;20139;-11
2022/12/05 01:21:32;;;;;;;5.63;5.05;;;19.60;40.20;;;;;;5094667;28;20051;-10
2022/12/05 01:23:58;;;;;;;5.75;5.15;;;19.60;40.80;;;;;;5094655;28;20405;-10
2022/12/05 01:26:24;;;;;;;6.35;5.55;;;19.60;40.20;;;;;;5094481;28;20056;-10
2022/12/05 01:28:50;;;;;;;6.88;5.25;;;19.60;40.20;;;;;;5094570;28;20099;-10
2022/12/05 01:31:23;;;;;;;6.15;5.20;;;19.60;40.20;;;;;;5094758;28;20055;-10
2022/12/05 01:33:51;;;;;;;6.07;5.10;;;19.60;40.20;;;;;;5094583;28;20052;-10
2022/12/05 01:36:17;;;;;;;5.10;4.57;;;19.60;40.20;;;;;;5094416;28;20127;-11
2022/12/05 01:38:43;;;;;;;5.72;5.13;;;19.60;40.20;;;;;;5093432;28;20052;-10
2022/12/05 01:41:13;;;;;;;5.47;4.93;;;19.60;40.20;;;;;;5094268;28;20051;-10
2022/12/05 01:44:04;;;;;;;6.40;5.40;;;19.60;40.20;;;;;;5094411;28;20044;-11
2022/12/05 01:46:32;;;;;;;6.45;5.07;;;19.60;40.20;;;;;;5094183;28;20056;-11
2022/12/05 01:49:13;;;;;;;5.75;5.00;;;19.60;40.20;;;;;;5094701;28;20089;-10
2022/12/05 01:51:42;;;;;;;6.32;5.43;;;19.60;40.20;;;;;;5090839;28;20051;-10
2022/12/05 01:54:09;;;;;;;6.18;5.40;;;19.60;40.30;;;;;;5094227;28;20055;-10
2022/12/05 01:56:35;;;;;;;6.18;5.35;;;19.60;40.20;;;;;;5093830;28;20134;-11
2022/12/05 01:59:03;;;;;;;7.13;5.50;;;19.60;40.30;;;;;;5094675;28;20048;-10
2022/12/05 02:01:29;;;;;;;5.22;4.68;;;19.60;40.20;;;;;;5093921;28;20054;-10
2022/12/05 02:03:57;;;;;;;6.22;5.28;;;19.60;40.20;;;;;;5093878;28;20489;-10
2022/12/05 02:06:25;;;;;;;6.82;5.40;;;19.60;40.20;;;;;;5093863;28;20047;-11
2022/12/05 02:08:51;;;;;;;6.72;5.35;;;19.60;40.30;;;;;;5094042;28;20478;-11
2022/12/05 02:11:18;;;;;;;5.30;4.63;;;19.60;40.20;;;;;;5094135;28;20052;-10
2022/12/05 02:13:54;;;;;;;5.82;5.22;;;19.60;40.20;;;;;;5093756;28;20060;-10
2022/12/05 02:16:37;;;;;;;6.00;4.82;;;19.60;40.30;;;;;;5094038;28;20135;-11
2022/12/05 02:19:15;;;;;;;6.00;4.97;;;19.60;40.30;;;;;;5093713;28;20062;-11
2022/12/05 02:21:56;;;;;;;6.57;5.43;;;19.60;40.30;;;;;;5093685;28;20043;-10
2022/12/05 02:25:09;;;;;;;6.27;5.27;;;19.60;40.30;;;;;;5093756;28;20051;-10
2022/12/05 02:27:50;;;;;;;6.00;5.40;;;19.60;40.30;;;;;;5017139;28;20624;-11
2022/12/05 02:30:19;;;;;;;6.07;5.22;;;19.60;40.30;;;;;;5091037;28;20059;-10
2022/12/05 02:32:57;;;;;;;6.55;5.57;;;19.60;40.20;;;;;;5093569;28;20409;-10
2022/12/05 02:35:52;;;;;;;5.78;5.03;;;19.60;40.30;;;;;;5093558;28;20051;-10
2022/12/05 02:38:27;;;;;;;5.70;4.97;;;19.60;40.80;;;;;;5070861;28;20489;-11
2022/12/05 02:41:29;;;;;;;6.43;4.93;;;19.60;40.20;;;;;;5093208;28;20964;-11
2022/12/05 02:44:13;;;;;;;6.38;5.60;;;19.60;40.30;;;;;;5093348;28;20059;-10
2022/12/05 02:46:40;;;;;;;4.90;4.35;;;19.60;40.20;;;;;;5093646;28;20106;-10
2022/12/05 02:49:10;;;;;;;6.38;5.35;;;19.60;40.30;;;;;;5092876;28;20048;-11
2022/12/05 02:51:47;;;;;;;5.78;4.80;;;19.60;40.30;;;;;;5093141;28;20101;-10
2022/12/05 02:54:18;;;;;;;6.05;5.25;;;19.60;40.30;;;;;;5093286;28;20074;-10
2022/12/05 02:56:46;;;;;;;5.88;5.22;;;19.60;40.20;;;;;;5093473;28;20066;-10
2022/12/05 02:59:11;;;;;;;6.13;5.30;;;19.60;40.30;;;;;;5093025;28;20086;-10
2022/12/05 03:01:38;;;;;;;5.78;4.88;;;19.60;40.30;;;;;;5092957;28;20465;-10
2022/12/05 03:04:06;;;;;;;5.88;5.03;;;19.60;40.30;;;;;;5093000;28;20056;-10
2022/12/05 03:06:43;;;;;;;5.05;4.47;;;19.60;40.30;;;;;;5093286;28;20060;-10
2022/12/05 03:09:14;;;;;;;6.60;5.50;;;19.60;40.20;;;;;;5093284;28;20375;-10
2022/12/05 03:11:43;;;;;;;5.68;4.90;;;19.60;40.20;;;;;;5092942;28;20105;-10
2022/12/05 03:14:20;;;;;;;5.45;4.88;;;19.60;40.20;;;;;;5093218;28;20048;-10
2022/12/05 03:16:53;;;;;;;5.70;4.97;;;19.60;40.20;;;;;;5093057;28;20082;-11
2022/12/05 03:19:36;;;;;;;6.35;4.60;;;19.60;40.20;;;;;;5092874;28;20135;-10
2022/12/05 03:22:09;;;;;;;5.50;4.90;;;19.60;40.20;;;;;;5093044;28;20113;-10
2022/12/05 03:24:39;;;;;;;5.28;4.78;;;19.60;40.20;;;;;;5092969;28;20079;-10
2022/12/05 03:27:24;;;;;;;4.97;4.28;;;19.60;40.20;;;;;;5092967;28;20052;-10
2022/12/05 03:30:00;;;;;;;5.57;4.95;;;19.60;40.70;;;;;;5092486;28;20056;-10
2022/12/05 03:32:32;;;;;;;6.32;5.18;;;19.60;40.20;;;;;;5092440;28;20463;-10
2022/12/05 03:35:09;;;;;;;6.25;4.80;;;19.60;40.20;;;;;;5092799;28;20378;-10
2022/12/05 03:37:57;;;;;;;6.28;4.95;;;19.60;40.20;;;;;;5092391;28;20075;-11
2022/12/05 03:40:40;;;;;;;5.18;4.53;;;19.60;40.30;;;;;;5092741;28;20093;-10
2022/12/05 03:43:17;;;;;;;5.85;4.93;;;19.60;40.20;;;;;;5092869;28;20055;-10
2022/12/05 03:45:55;;;;;;;6.68;5.32;;;19.60;40.20;;;;;;5092606;28;20233;-10
2022/12/05 03:48:50;;;;;;;5.78;4.68;;;19.60;40.20;;;;;;5092411;28;20052;-10
2022/12/05 03:51:19;;;;;;;5.90;4.63;;;19.60;40.20;;;;;;5092337;28;20078;-10
2022/12/05 03:54:04;;;;;;;6.10;5.50;;;19.60;40.20;;;;;;5092976;28;20055;-10
2022/12/05 03:56:53;;;;;;;4.90;4.35;;;19.60;40.20;;;;;;5092519;28;20564;-11
2022/12/05 03:59:33;;;;;;;5.47;4.90;;;19.60;40.20;;;;;;5092259;28;20040;-10
2022/12/05 04:02:05;;;;;;;5.75;5.15;;;19.60;40.30;;;;;;5094326;28;20040;-10
2022/12/05 04:04:41;;;;;;;5.75;5.18;;;19.60;40.80;;;;;;5096120;28;20058;-10
2022/12/05 04:07:09;;;;;;;6.40;5.75;;;19.60;40.80;;;;;;5095789;28;20054;-11
2022/12/05 04:09:49;;;;;;;6.35;5.32;;;19.60;40.30;;;;;;5095871;28;20596;-11
2022/12/05 04:12:22;;;;;;;6.40;4.95;;;19.60;40.20;;;;;;5095642;28;20131;-10
2022/12/05 04:14:51;;;;;;;5.90;4.88;;;19.60;40.20;;;;;;5095700;28;20052;-10
2022/12/05 04:17:25;;;;;;;5.30;4.65;;;19.60;40.20;;;;;;5096012;28;20427;-11
2022/12/05 04:22:42;;;;;;;5.68;5.07;;;19.60;40.80;;;;;;5095646;28;20048;-10
2022/12/05 04:28:21;;;;;;;5.55;4.80;;;19.60;40.20;;;;;;5095159;28;20052;-10
2022/12/05 04:31:07;;;;;;;4.85;4.22;;;19.60;40.20;;;;;;5095774;28;20550;-10
2022/12/05 04:33:55;;;;;;;5.82;4.97;;;19.60;40.20;;;;;;5095486;28;20051;-10
2022/12/05 04:36:45;;;;;;;5.55;4.75;;;19.60;40.20;;;;;;5095475;28;20048;-10
2022/12/05 04:39:29;;;;;;;5.45;4.90;;;19.60;40.20;;;;;;5094970;28;20060;-10
2022/12/05 04:42:00;;;;;;;5.85;4.80;;;19.60;40.30;;;;;;5095586;28;20525;-10
2022/12/05 04:44:31;;;;;;;5.18;4.68;;;19.60;40.30;;;;;;5095619;28;20055;-10
2022/12/05 04:47:01;;;;;;;5.82;5.10;;;19.60;40.30;;;;;;5095066;28;20048;-10
2022/12/05 04:49:29;;;;;;;5.23;4.73;;;19.50;40.30;;;;;;5095084;28;20512;-10
2022/12/05 04:52:00;;;;;;;6.15;4.80;;;19.50;40.30;;;;;;5095099;28;20051;-10
2022/12/05 04:54:50;;;;;;;6.40;4.68;;;19.50;40.30;;;;;;5095472;28;20455;-10
2022/12/05 04:57:22;;;;;;;5.47;4.72;;;19.60;40.40;;;;;;5094632;28;20080;-11
2022/12/05 04:59:48;;;;;;;5.95;5.07;;;19.50;40.40;;;;;;5094831;28;20497;-10
2022/12/05 05:02:20;;;;;;;5.63;4.55;;;19.50;40.20;;;;;;5095088;28;20060;-11
2022/12/05 05:04:49;;;;;;;4.72;4.15;;;19.50;40.20;;;;;;5095120;28;20056;-10
2022/12/05 05:07:17;;;;;;;5.95;5.25;;;19.50;40.20;;;;;;5094726;28;20048;-11
2022/12/05 05:09:43;;;;;;;5.30;4.50;;;19.60;40.20;;;;;;5094744;28;20074;-10
2022/12/05 05:12:09;;;;;;;5.53;4.93;;;19.60;40.20;;;;;;5094021;28;20059;-10
2022/12/05 05:14:35;;;;;;;5.60;4.75;;;19.60;40.20;;;;;;5094151;28;20176;-11
2022/12/05 05:17:01;;;;;;;5.90;5.03;;;19.60;40.20;;;;;;5094727;28;20138;-11
2022/12/05 05:19:27;;;;;;;5.07;4.57;;;19.60;40.10;;;;;;5094526;28;20485;-11
2022/12/05 05:21:53;;;;;;;6.63;5.47;;;19.60;40.20;;;;;;5094592;28;20060;-10
2022/12/05 05:24:20;;;;;;;5.18;4.68;;;19.60;40.10;;;;;;5094966;28;20390;-10
2022/12/05 05:26:46;;;;;;;6.10;5.50;;;19.60;40.10;;;;;;5094509;28;20056;-10
2022/12/05 05:29:13;;;;;;;5.78;4.53;;;19.60;40.20;;;;;;5094543;28;20048;-10
2022/12/05 05:31:40;;;;;;;5.03;4.53;;;19.60;40.20;;;;;;5094489;28;20076;-11
2022/12/05 05:34:07;;;;;;;5.88;4.93;;;19.60;40.20;;;;;;5094395;28;20055;-10
2022/12/05 05:36:33;;;;;;;6.43;5.28;;;19.60;40.20;;;;;;5094271;28;20494;-10
2022/12/05 05:39:00;;;;;;;5.30;4.63;;;19.60;40.20;;;;;;5094256;28;20054;-10
2022/12/05 05:41:28;;;;;;;5.82;4.75;;;19.60;40.20;;;;;;5094272;28;20044;-10
2022/12/05 05:43:54;;;;;;;5.90;5.15;;;19.60;40.20;;;;;;5094291;28;20067;-10
2022/12/05 05:46:23;;;;;;;5.80;4.97;;;19.60;40.30;;;;;;5094551;28;20080;-10
2022/12/05 05:48:49;;;;;;;5.90;4.95;;;19.60;40.30;;;;;;5076034;28;20056;-10
2022/12/05 05:51:16;;;;;;;5.30;4.60;;;19.60;40.30;;;;;;5094216;28;20537;-10
2022/12/05 05:53:42;;;;;;;5.85;4.78;;;19.60;40.30;;;;;;5094199;28;20055;-10
2022/12/05 05:56:11;;;;;;;5.78;4.57;;;19.60;40.30;;;;;;5094033;28;20074;-11
2022/12/05 05:58:37;;;;;;;5.70;4.63;;;19.60;40.30;;;;;;5093976;28;20059;-10
2022/12/05 06:01:08;;;;;;;5.80;4.85;;;19.60;40.30;;;;;;5093914;28;20036;-10
2022/12/05 06:03:35;;;;;;;5.07;4.22;;;19.60;40.40;;;;;;5094013;28;20044;-11
2022/12/05 06:06:03;;;;;;;5.32;4.35;;;19.60;40.40;;;;;;5094058;28;20051;-11
2022/12/05 06:08:30;;;;;;;5.90;4.97;;;19.60;40.40;;;;;;5093862;28;20190;-10
2022/12/05 06:10:56;;;;;;;6.30;5.03;;;19.60;40.40;;;;;;5093814;28;20048;-10
2022/12/05 06:13:22;;;;;;;6.95;5.28;;;19.60;40.40;;;;;;5094191;28;20101;-10
2022/12/05 06:15:48;;;;;;;7.32;5.40;;;19.60;40.40;;;;;;5093996;28;20048;-10
2022/12/05 06:18:13;;;;;;;6.93;4.38;;;19.60;40.40;;;;;;5092345;28;20075;-10
2022/12/05 06:20:39;;;;;;;6.40;5.50;;;19.60;40.40;;;;;;5093557;28;20406;-10
2022/12/05 06:23:05;;;;;;;7.97;5.13;;;19.60;40.50;;;;;;5093607;28;20060;-10
2022/12/05 06:25:30;;;;;;;4.82;4.30;;;19.60;40.50;;;;;;5093147;28;20492;-10
2022/12/05 06:27:56;;;;;;;5.80;5.05;;;19.60;40.40;;;;;;5093568;28;20047;-10
2022/12/05 06:30:21;;;;;;;7.80;5.15;;;19.60;40.40;;;;;;5093460;28;20051;-10
2022/12/05 06:32:47;;;;;;;4.90;4.40;;;19.60;40.40;;;;;;5093417;28;20129;-10
2022/12/05 06:35:16;;;;;;;6.05;5.00;;;19.60;40.40;;;;;;5093371;28;20087;-10
2022/12/05 06:37:44;;;;;;;6.22;5.07;;;19.60;40.40;;;;;;5093411;28;20386;-10
2022/12/05 06:40:11;;;;;;;5.75;4.57;;;19.60;40.50;;;;;;5093424;28;20075;-10
2022/12/05 06:42:38;;;;;;;6.00;4.95;;;19.60;40.50;;;;;;5093221;28;20056;-11
2022/12/05 06:45:04;;;;;;;5.00;4.50;;;19.60;40.50;;;;;;5093296;28;20084;-10
2022/12/05 06:47:30;;;;;;;6.15;5.13;;;19.60;40.40;;;;;;5093265;28;20052;-10
2022/12/05 06:49:56;;;;;;;6.03;5.03;;;19.60;40.40;;;;;;5093169;28;20054;-10
2022/12/05 06:52:22;;;;;;;5.35;4.43;;;19.60;40.40;;;;;;5092959;28;20083;-10
2022/12/05 06:54:47;;;;;;;7.95;5.18;;;19.60;40.40;;;;;;5093261;28;20458;-10
2022/12/05 06:57:13;;;;;;;5.15;4.40;;;19.60;40.40;;;;;;5093009;28;20056;-10
2022/12/05 06:59:39;;;;;;;6.72;4.43;;;19.60;40.30;;;;;;5091537;28;20052;-10
2022/12/05 07:02:07;;;;;;;5.80;4.95;;;19.70;40.90;;;;;;5073692;28;20053;-11
2022/12/05 07:04:34;;;;;;;6.35;4.95;;;19.70;40.30;;;;;;5092815;28;20052;-10
2022/12/05 07:07:01;;;;;;;5.40;4.28;;;19.70;40.30;;;;;;5092839;28;20056;-11
2022/12/05 07:09:47;;;;;;;6.57;5.18;;;19.70;40.30;;;;;;5092802;28;20060;-10
2022/12/05 07:12:15;;;;;;;5.70;4.60;;;19.70;40.30;;;;;;5093106;28;20193;-10
2022/12/05 07:14:42;;;;;;;5.43;4.50;;;19.80;40.30;;;;;;5092530;28;20125;-10
2022/12/05 07:17:08;;;;;;;4.85;4.07;;;19.80;40.30;;;;;;5092737;28;20059;-11
2022/12/05 07:19:34;;;;;;;6.30;5.03;;;19.80;40.30;;;;;;5092762;28;20075;-10
2022/12/05 07:21:59;;;;;;;5.50;4.47;;;19.80;40.30;;;;;;5092544;28;20566;-10
2022/12/05 07:24:25;;;;;;;5.65;4.60;;;19.80;40.30;;;;;;5092248;28;20070;-10
2022/12/05 07:26:51;;;;;;;6.03;4.45;;;19.80;40.30;;;;;;5092123;28;20106;-10
2022/12/05 07:29:17;;;;;;;5.03;4.32;;;19.70;40.30;;;;;;5091801;28;20055;-10
2022/12/05 07:31:42;;;;;;;5.40;4.70;;;19.70;40.30;;;;;;5092049;28;20472;-10
2022/12/05 07:34:08;;;;;;;5.30;4.80;;;19.80;40.40;;;;;;5092107;28;20051;-10
2022/12/05 07:36:34;;;;;;;5.53;4.57;;;19.70;40.30;;;;;;5091251;28;20082;-10
2022/12/05 07:39:00;;;;;;;6.82;4.47;;;19.80;40.40;;;;;;5091956;28;20143;-10
2022/12/05 07:41:28;;;;;;;6.03;4.90;;;19.80;40.40;;;;;;5091840;28;20123;-10
2022/12/05 07:43:55;;;;;;;7.82;5.63;;;19.70;40.30;;;;;;5091891;28;20056;-10
2022/12/05 07:46:22;;;;;;;5.35;4.47;;;19.70;40.40;;;;;;5091784;28;20066;-11
2022/12/05 07:48:49;;;;;;;5.80;4.80;;;19.70;40.40;;;;;;5091615;28;20055;-10
2022/12/05 07:51:16;;;;;;;5.95;4.63;;;19.70;40.40;;;;;;5091649;28;20508;-11
2022/12/05 07:53:43;;;;;;;5.40;4.70;;;19.70;40.40;;;;;;5091751;28;20151;-11
2022/12/05 07:56:13;;;;;;;5.28;4.65;;;19.70;40.40;;;;;;5091672;28;20052;-12
2022/12/05 07:58:38;;;;;;;7.15;5.10;;;19.70;40.40;;;;;;5091763;28;20048;-11
2022/12/05 08:01:14;;;;;;;6.68;5.55;;;19.70;40.50;;;;;;5091501;28;20056;-12
2022/12/05 08:03:39;;;;;;;6.53;5.07;;;19.70;40.50;;;;;;5091698;28;20476;-11
2022/12/05 08:06:11;;;;;;;6.03;4.75;;;19.70;40.50;;;;;;5091568;28;20086;-11
2022/12/05 08:08:37;;;;;;;6.43;5.20;;;19.70;40.50;;;;;;5091563;28;20142;-11
2022/12/05 08:11:12;;;;;;;6.70;5.10;;;19.70;40.50;;;;;;5091515;28;20044;-11
2022/12/05 08:13:38;;;;;;;5.95;4.97;;;19.60;40.50;;;;;;5092032;28;20048;-11
2022/12/05 08:16:12;;;;;;;6.95;5.25;;;19.60;40.50;;;;;;5091432;28;20056;-12
2022/12/05 08:18:39;;;;;;;7.32;5.70;;;19.60;40.60;;;;;;5091389;28;20134;-11
2022/12/05 08:21:06;;;;;;;7.40;5.35;;;19.60;40.60;;;;;;5091181;28;20078;-11
2022/12/05 08:23:33;;;;;;;6.53;4.75;;;19.60;40.50;;;;;;5091353;28;20044;-9
2022/12/05 08:26:07;;;;;;;7.15;5.38;;;19.60;40.60;;;;;;5091199;28;20051;-9
2022/12/05 08:28:34;;;;;;;7.72;6.13;;;19.60;40.70;;;;;;5091100;28;20124;-10
2022/12/05 08:31:14;;;;;;;7.03;5.15;;;19.60;40.70;;;;;;5091154;28;20044;-10
2022/12/05 08:33:41;;;;;;;5.73;4.10;;;19.60;40.70;;;;;;5091499;28;20160;-11
2022/12/05 08:36:09;;;;;;;8.05;5.20;;;19.60;40.70;;;;;;5090923;28;20491;-10
2022/12/05 08:38:35;;;;;;;6.80;5.53;;;19.60;40.70;;;;;;5091152;28;20079;-10
2022/12/05 08:41:05;;;;;;;7.40;5.90;;;19.60;40.70;;;;;;5091281;28;20083;-10
2022/12/05 08:43:32;;;;;;;5.20;4.03;;;19.60;40.70;;;;;;5091385;28;20053;-10
2022/12/05 08:45:58;;;;;;;7.32;5.38;;;19.60;40.80;;;;;;5091248;28;20082;-10
2022/12/05 08:48:25;;;;;;;6.97;5.50;;;19.60;40.80;;;;;;5093989;28;20189;-10
2022/12/05 08:50:51;;;;;;;6.70;5.35;;;19.60;40.80;;;;;;5094345;28;20066;-12
2022/12/05 08:53:16;;;;;;;7.15;5.28;;;19.60;40.80;;;;;;5093313;28;20051;-10
2022/12/05 08:55:44;;;;;;;6.53;5.13;;;19.60;40.80;;;;;;5094835;28;20048;-11
2022/12/05 08:58:10;;;;;;;7.07;5.43;;;19.60;40.80;;;;;;5092399;28;20505;-11
2022/12/05 09:00:37;;;;;;;7.30;5.32;;;19.60;40.80;;;;;;5074293;28;20052;-12
2022/12/05 09:03:03;;;;;;;8.10;5.68;;;19.60;40.80;;;;;;5092852;28;20051;-12
2022/12/05 09:05:29;;;;;;;7.45;5.13;;;19.60;40.80;;;;;;5093130;28;20040;-11
2022/12/05 09:07:55;;;;;;;7.68;5.57;;;19.60;40.80;;;;;;5093475;28;20059;-10
2022/12/05 09:10:21;;;;;;;5.72;5.13;;;19.60;40.80;;;;;;5094304;28;20143;-10
2022/12/05 09:12:49;;;;;;;6.28;4.88;;;19.60;40.90;;;;;;5094251;28;20055;-10
2022/12/05 09:15:16;;;;;;;10.30;5.63;;;19.60;40.90;;;;;;5093704;28;20076;-10
2022/12/05 09:17:44;;;;;;;6.93;5.60;;;19.60;40.80;;;;;;5093764;28;20071;-10
2022/12/05 09:20:12;;;;;;;7.57;5.43;;;19.60;40.70;;;;;;5093788;28;20493;-10
2022/12/05 09:22:40;;;;;;;6.53;5.38;;;19.60;40.70;;;;;;5093677;28;20139;-10
2022/12/05 09:25:06;;;;;;;7.82;5.75;;;19.60;40.70;;;;;;5093801;28;20510;-10
2022/12/05 09:27:32;;;;;;;7.82;5.75;;;19.60;40.70;;;;;;5092052;28;20052;-11
2022/12/05 09:29:58;;;;;;;7.25;5.20;;;19.60;40.70;;;;;;5092023;28;20051;-10
2022/12/05 09:32:24;;;;;;;7.95;5.80;;;19.60;40.70;;;;;;5093658;28;20051;-10
2022/12/05 09:34:50;;;;;;;8.27;5.72;;;19.60;40.70;;;;;;5093758;28;20091;-10
2022/12/05 09:37:17;;;;;;;7.55;5.40;;;19.60;40.70;;;;;;5075342;28;20052;-10
2022/12/05 09:39:44;;;;;;;6.93;5.05;;;19.60;40.80;;;;;;5093861;28;20079;-10
2022/12/05 09:42:37;;;;;;;9.88;6.07;;;19.60;40.80;;;;;;5093171;28;20135;-10
2022/12/05 09:45:14;;;;;;;7.15;5.35;;;19.60;40.80;;;;;;5092862;28;20504;-11
2022/12/05 09:47:59;;;;;;;8.75;5.75;;;19.60;40.80;;;;;;5090638;28;20142;-11
2022/12/05 09:50:31;;;;;;;6.68;5.00;;;19.60;40.90;;;;;;5074410;28;20040;-11
2022/12/05 09:53:19;;;;;;;5.97;4.30;;;19.60;40.90;;;;;;5093029;28;20059;-11
2022/12/05 09:56:14;;;;;;;6.82;5.07;;;19.60;40.90;;;;;;5092814;28;20552;-11
2022/12/05 09:58:52;;;;;;;7.55;5.45;;;19.60;40.90;;;;;;5069096;28;20138;-11
2022/12/05 10:01:54;;;;;;;7.35;5.50;;;19.60;40.90;;;;;;5092839;28;20044;-11
2022/12/05 10:04:45;;;;;;;8.80;5.75;;;19.60;40.90;;;;;;5093103;28;20373;-11
2022/12/05 10:07:33;;;;;;;6.82;5.70;;;19.60;40.90;;;;;;5093056;28;20469;-11
2022/12/05 10:10:29;;;;;;;8.05;5.05;;;19.60;40.90;;;;;;5093478;28;20052;-11
2022/12/05 10:13:27;;;;;;;7.85;5.78;;;19.60;40.90;;;;;;5093035;28;20454;-11
2022/12/05 10:15:58;;;;;;;7.75;5.25;;;19.60;40.90;;;;;;5093144;28;20120;-11
2022/12/05 10:18:39;;;;;;;6.60;5.60;;;19.60;40.90;;;;;;5092225;28;20079;-12
2022/12/05 10:21:08;;;;;;;7.30;5.63;;;19.70;40.90;;;;;;5092366;28;20048;-11
2022/12/05 10:24:00;;;;;;;6.75;5.15;;;19.60;40.80;;;;;;5093250;28;20564;-11
2022/12/05 10:26:31;;;;;;;7.70;5.15;;;19.70;40.90;;;;;;5092711;28;20063;-11
2022/12/05 10:29:09;;;;;;;7.32;5.47;;;19.70;40.90;;;;;;5092652;28;20521;-11
2022/12/05 10:31:38;;;;;;;8.48;5.60;;;19.70;40.90;;;;;;5093122;28;20059;-11
2022/12/05 10:34:28;;;;;;;6.78;5.18;;;19.70;41.20;;;;;;5093193;28;20056;-11
2022/12/05 10:37:12;;;;;;;9.73;6.22;;;19.70;41.40;;;;;;5093237;28;20052;-11
2022/12/05 10:39:39;;;;;;;9.30;5.88;;;19.70;41.50;;;;;;5092374;28;20059;-11
2022/12/05 10:42:08;;;;;;;8.55;5.28;;;19.70;41.50;;;;;;5091875;28;20059;-12
2022/12/05 10:44:34;;;;;;;9.15;5.78;;;19.70;41.50;;;;;;5093066;28;20049;-11
2022/12/05 10:47:00;;;;;;;7.95;5.30;;;19.70;41.50;;;;;;5092973;28;20491;-11
2022/12/05 10:49:28;;;;;;;8.82;5.80;;;19.70;41.60;;;;;;5093109;28;20056;-11
2022/12/05 10:51:53;;;;;;;9.27;5.95;;;19.70;41.60;;;;;;5093145;28;20424;-11
2022/12/05 10:54:27;;;;;;;7.97;5.40;;;19.70;41.60;;;;;;5093131;28;20132;-11
2022/12/05 10:56:53;;;;;;;8.40;5.30;;;19.70;41.60;;;;;;5092985;28;20052;-11
2022/12/05 10:59:22;;;;;;;7.65;5.32;;;19.70;41.60;;;;;;5091321;28;20417;-12
2022/12/05 11:01:57;;;;;;;7.55;5.68;;;19.70;41.60;;;;;;5090195;28;20136;-12
2022/12/05 11:04:38;;;;;;;8.82;5.65;;;19.70;41.60;;;;;;5090963;28;20056;-12
2022/12/05 11:07:04;;;;;;;;;;;19.70;41.60;;;;;;5092328;28;20060;-12
2022/12/05 11:09:32;;;;;;;7.63;5.20;;;19.70;41.60;;;;;;5092220;28;19923;-12
2022/12/05 11:12:08;;;;;;;6.95;5.07;;;19.70;41.60;;;;;;5092444;28;20079;-11
2022/12/05 11:14:35;;;;;;;7.43;5.22;;;19.70;41.60;;;;;;5092494;28;20051;-11
2022/12/05 11:17:03;;;;;;;10.88;5.47;;;19.70;41.60;;;;;;5092551;28;20093;-11
2022/12/05 11:19:32;;;;;;;7.38;5.93;;;19.60;41.60;;;;;;5092121;28;20127;-11
2022/12/05 11:22:00;;;;;;;6.38;5.22;;;19.70;41.60;;;;;;5092577;28;20051;-11
2022/12/05 11:24:30;;;;;;;7.38;5.82;;;19.70;41.70;;;;;;5092494;28;20044;-11
2022/12/05 11:26:59;;;;;;;6.63;5.75;;;19.70;41.70;;;;;;5092622;28;20445;-11
2022/12/05 11:29:35;;;;;;;7.18;5.57;;;19.60;41.70;;;;;;5092076;28;20040;-11
2022/12/05 11:32:03;;;;;;;7.07;5.30;;;19.70;41.70;;;;;;5092529;28;20047;-11
2022/12/05 11:34:38;;;;;;;7.13;5.18;;;19.60;41.60;;;;;;5092435;28;20127;-12
2022/12/05 11:37:12;;;;;;;8.32;5.70;;;19.70;41.70;;;;;;5092829;28;20120;-11
2022/12/05 11:39:38;;;;;;;7.65;5.00;;;19.70;41.70;;;;;;5092427;28;20059;-11
2022/12/05 11:42:15;;;;;;;7.03;5.18;;;19.70;41.70;;;;;;5092235;28;20044;-11
2022/12/05 11:45:14;;;;;;;7.93;5.40;;;19.70;41.60;;;;;;5092730;28;20412;-11
2022/12/05 11:47:55;;;;;;;7.45;5.30;;;19.70;41.60;;;;;;5091033;28;20118;-11
2022/12/05 11:50:50;;;;;;;6.53;5.20;;;19.70;41.70;;;;;;5092643;28;20079;-11
2022/12/05 11:53:31;;;;;;;8.13;5.65;;;19.70;41.70;;;;;;5092315;28;20048;-11
2022/12/05 11:56:12;;;;;;;10.93;6.47;;;19.70;41.80;;;;;;5092189;28;20086;-11
2022/12/05 11:58:55;;;;;;;6.45;5.15;;;19.70;41.90;;;;;;5092132;28;20056;-11
2022/12/05 12:02:02;;;;;;;7.65;5.05;;;19.70;42.40;;;;;;5091840;28;20072;-12
2022/12/05 12:04:43;;;;;;;9.25;5.68;;;19.70;42.00;;;;;;5091920;28;20052;-11
2022/12/05 12:07:39;;;;;;;8.70;4.97;;;19.70;42.10;;;;;;5091880;28;20056;-11
2022/12/05 12:10:24;;;;;;;8.73;5.43;;;19.70;42.10;;;;;;5091358;28;20051;-12
2022/12/05 12:13:06;;;;;;;9.07;5.90;;;19.70;42.10;;;;;;5091171;28;20040;-11
2022/12/05 12:15:46;;;;;;;9.68;5.40;;;19.70;42.10;;;;;;5091932;28;20062;-11
2022/12/05 12:18:24;;;;;;;7.00;5.05;;;19.70;42.10;;;;;;5092567;28;20513;-11
2022/12/05 12:21:19;;;;;;;7.40;4.88;;;19.70;42.10;;;;;;5092186;28;20055;-11
2022/12/05 12:23:55;;;;;;;8.80;4.97;;;19.70;42.10;;;;;;5094878;28;20497;-11
2022/12/05 12:26:56;;;;;;;9.52;5.65;;;19.70;42.20;;;;;;5095562;28;20094;-11
2022/12/05 12:29:27;;;;;;;8.38;5.50;;;19.70;42.20;;;;;;5095341;28;20094;-11
2022/12/05 12:32:24;;;;;;;7.90;5.22;;;19.70;42.30;;;;;;5095119;28;20044;-11
2022/12/05 12:35:16;;;;;;;7.10;5.10;;;19.70;42.30;;;;;;5090099;28;20067;-11
2022/12/05 12:38:02;;;;;;;7.10;5.32;;;19.70;42.30;;;;;;5095404;28;20052;-11
2022/12/05 12:40:38;;;;;;;9.10;5.25;;;19.70;42.30;;;;;;5094384;28;20055;-12
2022/12/05 12:43:35;;;;;;;7.93;5.20;;;19.70;42.30;;;;;;5093414;28;20089;-12
2022/12/05 12:46:13;;;;;;;6.90;4.95;;;19.70;42.30;;;;;;5092637;28;20913;-12
2022/12/05 12:48:57;;;;;;;7.55;5.22;;;19.70;42.30;;;;;;5093958;28;20048;-11
2022/12/05 12:51:24;;;;;;;10.00;5.93;;;19.60;42.20;;;;;;5094879;28;20036;-11
2022/12/05 12:54:15;;;;;;;8.38;5.65;;;19.60;42.30;;;;;;5094592;28;20509;-11
2022/12/05 12:56:46;;;;;;;7.97;5.35;;;19.60;42.30;;;;;;5094867;28;20054;-11
2022/12/05 12:59:24;;;;;;;7.68;5.03;;;19.60;42.20;;;;;;5094927;28;20067;-11
2022/12/05 13:02:01;;;;;;;6.90;4.22;;;19.60;42.30;;;;;;5092503;28;20044;-11
2022/12/05 13:04:32;;;;;;;6.47;4.72;;;19.60;42.20;;;;;;5093811;28;20135;-11
2022/12/05 13:07:11;;;;;;;8.95;5.60;;;19.60;42.20;;;;;;5094786;28;20047;-11
2022/12/05 13:09:50;;;;;;;6.43;5.15;;;19.60;42.30;;;;;;5094949;28;20047;-11
2022/12/05 13:12:27;;;;;;;7.68;5.38;;;19.60;42.20;;;;;;5094508;28;20067;-11
2022/12/05 13:15:11;;;;;;;6.70;5.15;;;19.60;42.20;;;;;;5094609;28;20378;-11
2022/12/05 13:17:41;;;;;;;9.50;6.18;;;19.70;42.20;;;;;;5094337;28;20130;-11
2022/12/05 13:20:20;;;;;;;9.27;5.13;;;19.70;42.20;;;;;;5092658;28;20125;-11